sensor_id;sensor_type;location;lat;lon;timestamp;pressure;altitude;pressure_sealevel;temperature;humidity
5883;BME280;2967;51.488;6.618;2023-01-26T00:01:42;102264.75;;;1.18;100.00
5883;BME280;2967;51.488;6.618;2023-01-26T00:06:45;102255.13;;;1.28;100.00
5883;BME280;2967;51.488;6.618;2023-01-26T00:11:49;102244.66;;;1.43;100.00
5883;BME280;2967;51.488;6.618;2023-01-26T00:16:51;102237.72;;;1.39;100.00
5883;BME280;2967;51.488;6.618;2023-01-26T00:21:54;102247.34;;;1.23;100.00
5883;BME280;2967;51.488;6.618;2023-01-26T00:26:58;102242.16;;;1.11;100.00
5883;BME280;2967;51.488;6.618;2023-01-26T00:32:01;102233.34;;;1.42;100.00
5883;BME280;2967;51.488;6.618;2023-01-26T00:37:04;102240.22;;;1.55;100.00
5883;BME280;2967;51.488;6.618;2023-01-26T00:42:07;102223.88;;;1.26;100.00
5883;BME280;2967;51.488;6.618;2023-01-26T00:47:16;102215.97;;;1.44;100.00
5883;BME280;2967;51.488;6.618;2023-01-26T00:52:19;102218.63;;;1.37;100.00
5883;BME280;2967;51.488;6.618;2023-01-26T00:57:25;102218.72;;;1.11;100.00
5883;BME280;2967;51.488;6.618;2023-01-26T01:02:27;102209.13;;;1.25;100.00
5883;BME280;2967;51.488;6.618;2023-01-26T01:07:30;102199.53;;;1.29;100.00
5883;BME280;2967;51.488;6.618;2023-01-26T01:12:34;102206.44;;;1.39;100.00
5883;BME280;2967;51.488;6.618;2023-01-26T01:17:37;102197.00;;;1.14;100.00
5883;BME280;2967;51.488;6.618;2023-01-26T01:22:42;102188.31;;;1.09;100.00
5883;BME280;2967;51.488;6.618;2023-01-26T01:27:45;102181.53;;;0.76;100.00
5883;BME280;2967;51.488;6.618;2023-01-26T01:32:48;102184.94;;;0.96;100.00
5883;BME280;2967;51.488;6.618;2023-01-26T01:37:52;102189.34;;;0.63;100.00
5883;BME280;2967;51.488;6.618;2023-01-26T01:42:56;102195.38;;;0.87;100.00
5883;BME280;2967;51.488;6.618;2023-01-26T01:48:01;102184.06;;;0.93;100.00
5883;BME280;2967;51.488;6.618;2023-01-26T01:53:07;102178.81;;;1.06;100.00
5883;BME280;2967;51.488;6.618;2023-01-26T01:58:15;102183.06;;;1.25;100.00
5883;BME280;2967;51.488;6.618;2023-01-26T02:03:18;102174.34;;;1.28;100.00
5883;BME280;2967;51.488;6.618;2023-01-26T02:08:25;102175.31;;;1.10;100.00
5883;BME280;2967;51.488;6.618;2023-01-26T02:13:31;102166.59;;;1.14;100.00
5883;BME280;2967;51.488;6.618;2023-01-26T02:18:35;102165.78;;;1.05;100.00
5883;BME280;2967;51.488;6.618;2023-01-26T02:23:51;102138.00;;;1.05;100.00
5883;BME280;2967;51.488;6.618;2023-01-26T02:28:58;102160.72;;;0.67;100.00
5883;BME280;2967;51.488;6.618;2023-01-26T02:34:02;102151.84;;;1.09;100.00
5883;BME280;2967;51.488;6.618;2023-01-26T02:39:18;102137.13;;;1.00;100.00
5883;BME280;2967;51.488;6.618;2023-01-26T02:44:23;102148.31;;;1.23;100.00
5883;BME280;2967;51.488;6.618;2023-01-26T02:49:27;102144.94;;;1.00;100.00
5883;BME280;2967;51.488;6.618;2023-01-26T02:54:48;102142.47;;;0.76;100.00
5883;BME280;2967;51.488;6.618;2023-01-26T03:00:11;102139.94;;;0.55;100.00
5883;BME280;2967;51.488;6.618;2023-01-26T03:05:15;102135.53;;;0.74;100.00
5883;BME280;2967;51.488;6.618;2023-01-26T03:10:17;102139.03;;;0.61;100.00
5883;BME280;2967;51.488;6.618;2023-01-26T03:15:21;102131.94;;;0.99;100.00
5883;BME280;2967;51.488;6.618;2023-01-26T03:20:44;102142.41;;;0.87;100.00
5883;BME280;2967;51.488;6.618;2023-01-26T03:26:04;102135.31;;;1.16;100.00
5883;BME280;2967;51.488;6.618;2023-01-26T03:31:33;102150.91;;;1.26;100.00
5883;BME280;2967;51.488;6.618;2023-01-26T03:36:36;102141.28;;;1.36;100.00
5883;BME280;2967;51.488;6.618;2023-01-26T03:41:44;102133.47;;;1.37;100.00
5883;BME280;2967;51.488;6.618;2023-01-26T03:47:06;102119.47;;;1.49;100.00
5883;BME280;2967;51.488;6.618;2023-01-26T03:52:26;102120.28;;;1.58;100.00
5883;BME280;2967;51.488;6.618;2023-01-26T03:57:46;102123.81;;;1.51;100.00
5883;BME280;2967;51.488;6.618;2023-01-26T04:02:51;102109.88;;;1.55;100.00
5883;BME280;2967;51.488;6.618;2023-01-26T04:08:11;102112.50;;;1.54;100.00
5883;BME280;2967;51.488;6.618;2023-01-26T04:13:29;102115.22;;;1.36;100.00
5883;BME280;2967;51.488;6.618;2023-01-26T04:19:03;102117.81;;;1.40;100.00
5883;BME280;2967;51.488;6.618;2023-01-26T04:24:24;102121.13;;;1.60;100.00
5883;BME280;2967;51.488;6.618;2023-01-26T04:29:30;102119.47;;;1.52;100.00
5883;BME280;2967;51.488;6.618;2023-01-26T04:34:34;102080.56;;;1.26;100.00
5883;BME280;2967;51.488;6.618;2023-01-26T04:39:43;102122.00;;;1.64;100.00
5883;BME280;2967;51.488;6.618;2023-01-26T04:44:45;102123.72;;;1.66;100.00
5883;BME280;2967;51.488;6.618;2023-01-26T04:49:50;102118.41;;;1.77;100.00
5883;BME280;2967;51.488;6.618;2023-01-26T04:54:55;102110.63;;;1.74;100.00
5883;BME280;2967;51.488;6.618;2023-01-26T04:59:58;102132.28;;;1.79;100.00
5883;BME280;2967;51.488;6.618;2023-01-26T05:05:02;102118.34;;;1.84;100.00
5883;BME280;2967;51.488;6.618;2023-01-26T05:10:06;102118.34;;;1.84;100.00
5883;BME280;2967;51.488;6.618;2023-01-26T05:15:25;102111.34;;;1.89;100.00
5883;BME280;2967;51.488;6.618;2023-01-26T05:20:47;102120.91;;;1.92;100.00
5883;BME280;2967;51.488;6.618;2023-01-26T05:25:52;102121.00;;;1.75;100.00
5883;BME280;2967;51.488;6.618;2023-01-26T05:30:55;102108.81;;;1.80;100.00
5883;BME280;2967;51.488;6.618;2023-01-26T05:36:03;102116.78;;;1.62;100.00
5883;BME280;2967;51.488;6.618;2023-01-26T05:41:06;102122.63;;;1.90;100.00
5883;BME280;2967;51.488;6.618;2023-01-26T05:46:34;102118.28;;;1.92;100.00
5883;BME280;2967;51.488;6.618;2023-01-26T05:51:38;102116.53;;;1.94;100.00
5883;BME280;2967;51.488;6.618;2023-01-26T05:56:41;102117.47;;;1.84;100.00
5883;BME280;2967;51.488;6.618;2023-01-26T06:01:44;102114.81;;;1.90;100.00
5883;BME280;2967;51.488;6.618;2023-01-26T06:06:48;102114.81;;;1.93;100.00
5883;BME280;2967;51.488;6.618;2023-01-26T06:11:57;102115.69;;;1.90;100.00
5883;BME280;2967;51.488;6.618;2023-01-26T06:17:18;102088.75;;;1.88;100.00
5883;BME280;2967;51.488;6.618;2023-01-26T06:22:27;102120.94;;;1.86;100.00
5883;BME280;2967;51.488;6.618;2023-01-26T06:27:31;102124.34;;;1.92;100.00
5883;BME280;2967;51.488;6.618;2023-01-26T06:32:37;102125.25;;;1.93;100.00
5883;BME280;2967;51.488;6.618;2023-01-26T06:37:42;102130.50;;;1.85;100.00
5883;BME280;2967;51.488;6.618;2023-01-26T06:42:47;102117.38;;;1.96;100.00
5883;BME280;2967;51.488;6.618;2023-01-26T06:47:57;102091.38;;;1.88;100.00
5883;BME280;2967;51.488;6.618;2023-01-26T06:53:25;102128.53;;;2.10;100.00
5883;BME280;2967;51.488;6.618;2023-01-26T06:58:58;102105.22;;;1.93;100.00
5883;BME280;2967;51.488;6.618;2023-01-26T07:04:24;102128.78;;;1.84;100.00
5883;BME280;2967;51.488;6.618;2023-01-26T07:09:29;102126.28;;;1.69;100.00
5883;BME280;2967;51.488;6.618;2023-01-26T07:14:35;102137.53;;;1.77;100.00
5883;BME280;2967;51.488;6.618;2023-01-26T07:19:38;102140.16;;;1.74;100.00
5883;BME280;2967;51.488;6.618;2023-01-26T07:24:42;102133.91;;;1.95;100.00
5883;BME280;2967;51.488;6.618;2023-01-26T07:29:44;102139.91;;;2.04;100.00
5883;BME280;2967;51.488;6.618;2023-01-26T07:34:47;102139.00;;;2.08;100.00
5883;BME280;2967;51.488;6.618;2023-01-26T07:39:51;102146.00;;;2.06;100.00
5883;BME280;2967;51.488;6.618;2023-01-26T07:44:54;102133.16;;;1.81;100.00
5883;BME280;2967;51.488;6.618;2023-01-26T07:49:56;102140.06;;;1.91;100.00
5883;BME280;2967;51.488;6.618;2023-01-26T07:55:00;102145.19;;;1.98;100.00
5883;BME280;2967;51.488;6.618;2023-01-26T08:00:04;102152.06;;;2.08;100.00
5883;BME280;2967;51.488;6.618;2023-01-26T08:05:12;102160.59;;;2.25;100.00
5883;BME280;2967;51.488;6.618;2023-01-26T08:10:16;102157.16;;;2.22;100.00
5883;BME280;2967;51.488;6.618;2023-01-26T08:15:19;102152.75;;;2.27;100.00
5883;BME280;2967;51.488;6.618;2023-01-26T08:20:21;102159.59;;;2.40;100.00
5883;BME280;2967;51.488;6.618;2023-01-26T08:25:26;102157.00;;;2.37;100.00
5883;BME280;2967;51.488;6.618;2023-01-26T08:30:28;102149.22;;;2.34;100.00
5883;BME280;2967;51.488;6.618;2023-01-26T08:35:31;102159.63;;;2.38;100.00
5883;BME280;2967;51.488;6.618;2023-01-26T08:40:35;102158.78;;;2.36;100.00
5883;BME280;2967;51.488;6.618;2023-01-26T08:45:38;102169.06;;;2.49;100.00
5883;BME280;2967;51.488;6.618;2023-01-26T08:50:40;102163.78;;;2.54;100.00
5883;BME280;2967;51.488;6.618;2023-01-26T08:55:44;102161.34;;;2.41;100.00
5883;BME280;2967;51.488;6.618;2023-01-26T09:00:47;102164.75;;;2.47;100.00
5883;BME280;2967;51.488;6.618;2023-01-26T09:05:50;102164.66;;;2.53;100.00
5883;BME280;2967;51.488;6.618;2023-01-26T09:10:54;102170.72;;;2.55;100.00
5883;BME280;2967;51.488;6.618;2023-01-26T09:15:57;102178.56;;;2.55;100.00
5883;BME280;2967;51.488;6.618;2023-01-26T09:21:06;102176.84;;;2.54;100.00
5883;BME280;2967;51.488;6.618;2023-01-26T09:26:11;102175.03;;;2.62;100.00
5883;BME280;2967;51.488;6.618;2023-01-26T09:31:14;102180.25;;;2.63;100.00
5883;BME280;2967;51.488;6.618;2023-01-26T09:36:17;102151.56;;;2.59;100.00
5883;BME280;2967;51.488;6.618;2023-01-26T09:41:50;102186.97;;;2.84;100.00
5883;BME280;2967;51.488;6.618;2023-01-26T09:47:04;102181.94;;;2.69;100.00
5883;BME280;2967;51.488;6.618;2023-01-26T09:52:13;102177.44;;;2.78;100.00
5883;BME280;2967;51.488;6.618;2023-01-26T09:57:24;102188.69;;;2.86;100.00
5883;BME280;2967;51.488;6.618;2023-01-26T10:02:38;102175.59;;;2.89;100.00
5883;BME280;2967;51.488;6.618;2023-01-26T10:07:43;102173.84;;;2.91;100.00
5883;BME280;2967;51.488;6.618;2023-01-26T10:12:48;102173.78;;;2.96;100.00
5883;BME280;2967;51.488;6.618;2023-01-26T10:17:53;102165.03;;;2.98;100.00
5883;BME280;2967;51.488;6.618;2023-01-26T10:23:00;102161.63;;;2.92;100.00
5883;BME280;2967;51.488;6.618;2023-01-26T10:28:11;102168.53;;;2.99;100.00
5883;BME280;2967;51.488;6.618;2023-01-26T10:33:17;102158.91;;;3.01;100.00
5883;BME280;2967;51.488;6.618;2023-01-26T10:38:38;102160.72;;;2.96;100.00
5883;BME280;2967;51.488;6.618;2023-01-26T10:43:50;102166.69;;;3.04;100.00
5883;BME280;2967;51.488;6.618;2023-01-26T10:48:55;102161.47;;;3.04;100.00
5883;BME280;2967;51.488;6.618;2023-01-26T10:54:18;102151.94;;;3.01;100.00
5883;BME280;2967;51.488;6.618;2023-01-26T10:59:29;102166.53;;;3.17;100.00
5883;BME280;2967;51.488;6.618;2023-01-26T11:04:32;102159.75;;;3.03;100.00
5883;BME280;2967;51.488;6.618;2023-01-26T11:09:35;102151.75;;;3.15;100.00
5883;BME280;2967;51.488;6.618;2023-01-26T11:14:39;102157.03;;;3.10;100.00
5883;BME280;2967;51.488;6.618;2023-01-26T11:20:07;102151.69;;;3.19;100.00
5883;BME280;2967;51.488;6.618;2023-01-26T11:25:21;102135.09;;;3.22;100.00
5883;BME280;2967;51.488;6.618;2023-01-26T11:30:43;102138.41;;;3.36;100.00
5883;BME280;2967;51.488;6.618;2023-01-26T11:35:53;102128.78;;;3.38;100.00
5883;BME280;2967;51.488;6.618;2023-01-26T11:41:10;102128.97;;;3.23;100.00
5883;BME280;2967;51.488;6.618;2023-01-26T11:46:39;102129.78;;;3.28;100.00
5883;BME280;2967;51.488;6.618;2023-01-26T11:51:57;102131.47;;;3.32;100.00
5883;BME280;2967;51.488;6.618;2023-01-26T11:57:11;102127.19;;;3.28;100.00
5883;BME280;2967;51.488;6.618;2023-01-26T12:02:26;102111.66;;;3.16;100.00
5883;BME280;2967;51.488;6.618;2023-01-26T12:07:35;102114.22;;;3.19;100.00
5883;BME280;2967;51.488;6.618;2023-01-26T12:12:55;102113.28;;;3.26;100.00
5883;BME280;2967;51.488;6.618;2023-01-26T12:18:05;102101.50;;;2.93;100.00
5883;BME280;2967;51.488;6.618;2023-01-26T12:23:25;102093.72;;;2.89;100.00
5883;BME280;2967;51.488;6.618;2023-01-26T12:28:32;102094.22;;;3.15;100.00
5883;BME280;2967;51.488;6.618;2023-01-26T12:33:38;102097.41;;;3.36;100.00
5883;BME280;2967;51.488;6.618;2023-01-26T12:38:49;102092.16;;;3.38;100.00
5883;BME280;2967;51.488;6.618;2023-01-26T12:44:03;102084.97;;;3.52;100.00
5883;BME280;2967;51.488;6.618;2023-01-26T12:49:14;102072.84;;;3.48;100.00
5883;BME280;2967;51.488;6.618;2023-01-26T12:54:28;102054.38;;;3.57;100.00
5883;BME280;2967;51.488;6.618;2023-01-26T12:59:36;102068.50;;;3.47;100.00
5883;BME280;2967;51.488;6.618;2023-01-26T13:04:50;102067.50;;;3.54;100.00
5883;BME280;2967;51.488;6.618;2023-01-26T13:10:22;102066.53;;;3.59;100.00
5883;BME280;2967;51.488;6.618;2023-01-26T13:15:29;102063.06;;;3.59;100.00
5883;BME280;2967;51.488;6.618;2023-01-26T13:20:44;102057.09;;;3.51;100.00
5883;BME280;2967;51.488;6.618;2023-01-26T13:25:48;102063.91;;;3.59;100.00
5883;BME280;2967;51.488;6.618;2023-01-26T13:31:11;102054.13;;;3.70;100.00
5883;BME280;2967;51.488;6.618;2023-01-26T13:36:17;102053.44;;;3.59;100.00
5883;BME280;2967;51.488;6.618;2023-01-26T13:41:21;102047.91;;;3.79;100.00
5883;BME280;2967;51.488;6.618;2023-01-26T13:46:29;102042.34;;;3.97;100.00
5883;BME280;2967;51.488;6.618;2023-01-26T13:51:34;102037.78;;;4.06;100.00
5883;BME280;2967;51.488;6.618;2023-01-26T13:56:38;102035.00;;;4.17;100.00
5883;BME280;2967;51.488;6.618;2023-01-26T14:01:42;102035.69;;;4.25;100.00
5883;BME280;2967;51.488;6.618;2023-01-26T14:06:51;102041.66;;;4.33;100.00
5883;BME280;2967;51.488;6.618;2023-01-26T14:11:57;102041.47;;;4.42;100.00
5883;BME280;2967;51.488;6.618;2023-01-26T14:17:05;102052.50;;;4.57;100.00
5883;BME280;2967;51.488;6.618;2023-01-26T14:22:12;102049.78;;;4.62;100.00
5883;BME280;2967;51.488;6.618;2023-01-26T14:27:29;102053.97;;;4.70;100.00
5883;BME280;2967;51.488;6.618;2023-01-26T14:32:33;102060.06;;;4.72;100.00
5883;BME280;2967;51.488;6.618;2023-01-26T14:37:37;102057.38;;;4.75;100.00
5883;BME280;2967;51.488;6.618;2023-01-26T14:42:40;102067.84;;;4.75;100.00
5883;BME280;2967;51.488;6.618;2023-01-26T14:47:42;102059.19;;;4.72;100.00
5883;BME280;2967;51.488;6.618;2023-01-26T14:52:47;102060.81;;;4.79;100.00
5883;BME280;2967;51.488;6.618;2023-01-26T14:57:49;102058.91;;;4.85;100.00
5883;BME280;2967;51.488;6.618;2023-01-26T15:02:54;102063.06;;;4.94;100.00
5883;BME280;2967;51.488;6.618;2023-01-26T15:08:00;102055.00;;;5.03;100.00
5883;BME280;2967;51.488;6.618;2023-01-26T15:13:18;102057.56;;;5.05;100.00
5883;BME280;2967;51.488;6.618;2023-01-26T15:18:21;102055.09;;;5.00;100.00
5883;BME280;2967;51.488;6.618;2023-01-26T15:23:27;102056.91;;;4.98;100.00
5883;BME280;2967;51.488;6.618;2023-01-26T15:28:31;102046.44;;;4.96;100.00
5883;BME280;2967;51.488;6.618;2023-01-26T15:33:48;102049.06;;;4.95;100.00
5883;BME280;2967;51.488;6.618;2023-01-26T15:38:56;102054.31;;;4.95;100.00
5883;BME280;2967;51.488;6.618;2023-01-26T15:44:02;102044.78;;;4.92;100.00
5883;BME280;2967;51.488;6.618;2023-01-26T15:49:05;102051.84;;;4.89;100.00
5883;BME280;2967;51.488;6.618;2023-01-26T15:54:10;102060.50;;;4.92;100.00
5883;BME280;2967;51.488;6.618;2023-01-26T15:59:12;102057.00;;;4.92;100.00
5883;BME280;2967;51.488;6.618;2023-01-26T16:04:15;102056.13;;;4.93;100.00
5883;BME280;2967;51.488;6.618;2023-01-26T16:09:19;102051.94;;;4.84;100.00
5883;BME280;2967;51.488;6.618;2023-01-26T16:14:21;102056.25;;;4.87;100.00
5883;BME280;2967;51.488;6.618;2023-01-26T16:19:24;102057.78;;;4.97;100.00
5883;BME280;2967;51.488;6.618;2023-01-26T16:24:39;102045.78;;;4.87;100.00
5883;BME280;2967;51.488;6.618;2023-01-26T16:29:42;102064.56;;;5.07;100.00
5883;BME280;2967;51.488;6.618;2023-01-26T16:34:44;102055.78;;;5.07;100.00
5883;BME280;2967;51.488;6.618;2023-01-26T16:39:48;102062.81;;;5.05;100.00
5883;BME280;2967;51.488;6.618;2023-01-26T16:44:51;102052.53;;;4.97;100.00
5883;BME280;2967;51.488;6.618;2023-01-26T16:49:53;102059.34;;;5.03;100.00
5883;BME280;2967;51.488;6.618;2023-01-26T16:54:57;102050.53;;;5.07;100.00
5883;BME280;2967;51.488;6.618;2023-01-26T17:00:00;102055.00;;;5.03;100.00
5883;BME280;2967;51.488;6.618;2023-01-26T17:05:04;102054.00;;;5.09;100.00
5883;BME280;2967;51.488;6.618;2023-01-26T17:10:09;102055.78;;;5.07;100.00
5883;BME280;2967;51.488;6.618;2023-01-26T17:15:12;102044.41;;;5.08;100.00
5883;BME280;2967;51.488;6.618;2023-01-26T17:20:16;102042.88;;;4.99;100.00
5883;BME280;2967;51.488;6.618;2023-01-26T17:25:22;102061.03;;;5.07;100.00
5883;BME280;2967;51.488;6.618;2023-01-26T17:30:24;102060.06;;;5.11;100.00
5883;BME280;2967;51.488;6.618;2023-01-26T17:35:27;102063.75;;;5.03;100.00
5883;BME280;2967;51.488;6.618;2023-01-26T17:40:32;102062.75;;;5.08;100.00
5883;BME280;2967;51.488;6.618;2023-01-26T17:45:37;102059.97;;;5.16;100.00
5883;BME280;2967;51.488;6.618;2023-01-26T17:50:46;102056.34;;;5.20;100.00
5883;BME280;2967;51.488;6.618;2023-01-26T17:55:50;102058.22;;;5.16;100.00
5883;BME280;2967;51.488;6.618;2023-01-26T18:00:53;102063.47;;;5.16;100.00
5883;BME280;2967;51.488;6.618;2023-01-26T18:05:57;102040.00;;;5.09;100.00
5883;BME280;2967;51.488;6.618;2023-01-26T18:11:03;102052.00;;;5.20;100.00
5883;BME280;2967;51.488;6.618;2023-01-26T18:16:07;102051.81;;;5.28;100.00
5883;BME280;2967;51.488;6.618;2023-01-26T18:21:12;102056.88;;;5.35;100.00
5883;BME280;2967;51.488;6.618;2023-01-26T18:26:17;102027.56;;;5.18;100.00
5883;BME280;2967;51.488;6.618;2023-01-26T18:31:22;102060.25;;;5.40;100.00
5883;BME280;2967;51.488;6.618;2023-01-26T18:36:25;102060.19;;;5.43;100.00
5883;BME280;2967;51.488;6.618;2023-01-26T18:41:30;102068.00;;;5.46;100.00
5883;BME280;2967;51.488;6.618;2023-01-26T18:46:33;102061.84;;;5.47;100.00
5883;BME280;2967;51.488;6.618;2023-01-26T18:51:36;102055.59;;;5.53;100.00
5883;BME280;2967;51.488;6.618;2023-01-26T18:56:40;102051.97;;;5.57;100.00
5883;BME280;2967;51.488;6.618;2023-01-26T19:01:43;102048.34;;;5.62;100.00
5883;BME280;2967;51.488;6.618;2023-01-26T19:06:46;102038.00;;;5.56;100.00
5883;BME280;2967;51.488;6.618;2023-01-26T19:11:50;102052.69;;;5.63;100.00
5883;BME280;2967;51.488;6.618;2023-01-26T19:16:52;102052.63;;;5.66;100.00
5883;BME280;2967;51.488;6.618;2023-01-26T19:21:55;102061.25;;;5.71;100.00
5883;BME280;2967;51.488;6.618;2023-01-26T19:26:59;102060.25;;;5.75;100.00
5883;BME280;2967;51.488;6.618;2023-01-26T19:32:02;102047.22;;;5.72;100.00
5883;BME280;2967;51.488;6.618;2023-01-26T19:37:04;102055.06;;;5.74;100.00
5883;BME280;2967;51.488;6.618;2023-01-26T19:42:08;102064.63;;;5.76;100.00
5883;BME280;2967;51.488;6.618;2023-01-26T19:47:11;102065.47;;;5.77;100.00
5883;BME280;2967;51.488;6.618;2023-01-26T19:52:14;102064.47;;;5.84;100.00
5883;BME280;2967;51.488;6.618;2023-01-26T19:57:18;102068.72;;;5.88;100.00
5883;BME280;2967;51.488;6.618;2023-01-26T20:02:20;102067.78;;;5.90;100.00
5883;BME280;2967;51.488;6.618;2023-01-26T20:07:23;102061.66;;;5.91;100.00
5883;BME280;2967;51.488;6.618;2023-01-26T20:12:27;102066.91;;;5.91;100.00
5883;BME280;2967;51.488;6.618;2023-01-26T20:17:30;102066.97;;;5.88;100.00
5883;BME280;2967;51.488;6.618;2023-01-26T20:22:33;102071.34;;;5.88;100.00
5883;BME280;2967;51.488;6.618;2023-01-26T20:27:37;102085.28;;;5.91;100.00
5883;BME280;2967;51.488;6.618;2023-01-26T20:32:39;102073.06;;;5.90;100.00
5883;BME280;2967;51.488;6.618;2023-01-26T20:37:42;102075.66;;;5.92;100.00
5883;BME280;2967;51.488;6.618;2023-01-26T20:42:46;102075.81;;;5.84;100.00
5883;BME280;2967;51.488;6.618;2023-01-26T20:47:49;102072.63;;;5.72;100.00
5883;BME280;2967;51.488;6.618;2023-01-26T20:52:52;102075.19;;;5.73;100.00
5883;BME280;2967;51.488;6.618;2023-01-26T20:57:56;102064.63;;;5.76;100.00
5883;BME280;2967;51.488;6.618;2023-01-26T21:02:59;102062.81;;;5.78;100.00
5883;BME280;2967;51.488;6.618;2023-01-26T21:08:02;102059.31;;;5.78;100.00
5883;BME280;2967;51.488;6.618;2023-01-26T21:13:06;102050.56;;;5.80;100.00
5883;BME280;2967;51.488;6.618;2023-01-26T21:18:10;102067.81;;;5.89;100.00
5883;BME280;2967;51.488;6.618;2023-01-26T21:23:13;102060.84;;;5.88;100.00
5883;BME280;2967;51.488;6.618;2023-01-26T21:28:17;102066.97;;;5.88;100.00
5883;BME280;2967;51.488;6.618;2023-01-26T21:33:19;102065.28;;;5.86;100.00
5883;BME280;2967;51.488;6.618;2023-01-26T21:38:22;102055.69;;;5.85;100.00
5883;BME280;2967;51.488;6.618;2023-01-26T21:43:26;102060.84;;;5.88;100.00
5883;BME280;2967;51.488;6.618;2023-01-26T21:48:29;102067.72;;;5.93;100.00
5883;BME280;2967;51.488;6.618;2023-01-26T21:53:35;102018.38;;;5.71;100.00
5883;BME280;2967;51.488;6.618;2023-01-26T21:58:39;102058.19;;;5.89;100.00
5883;BME280;2967;51.488;6.618;2023-01-26T22:04:04;102070.50;;;5.87;100.00
5883;BME280;2967;51.488;6.618;2023-01-26T22:09:10;102068.84;;;5.83;100.00
5883;BME280;2967;51.488;6.618;2023-01-26T22:14:16;102054.00;;;5.82;100.00
5883;BME280;2967;51.488;6.618;2023-01-26T22:19:19;102057.50;;;5.83;100.00
5883;BME280;2967;51.488;6.618;2023-01-26T22:24:21;102057.28;;;5.90;100.00
5883;BME280;2967;51.488;6.618;2023-01-26T22:29:25;102053.91;;;5.85;100.00
5883;BME280;2967;51.488;6.618;2023-01-26T22:34:28;102057.31;;;5.89;100.00
5883;BME280;2967;51.488;6.618;2023-01-26T22:39:30;102068.59;;;5.94;100.00
5883;BME280;2967;51.488;6.618;2023-01-26T22:44:34;102069.44;;;5.94;100.00
5883;BME280;2967;51.488;6.618;2023-01-26T22:49:39;102066.00;;;5.92;100.00
5883;BME280;2967;51.488;6.618;2023-01-26T22:54:45;102070.19;;;5.99;100.00
5883;BME280;2967;51.488;6.618;2023-01-26T22:59:49;102068.50;;;5.97;100.00
5883;BME280;2967;51.488;6.618;2023-01-26T23:04:52;102075.31;;;6.04;100.00
5883;BME280;2967;51.488;6.618;2023-01-26T23:09:55;102074.50;;;6.02;100.00
5883;BME280;2967;51.488;6.618;2023-01-26T23:14:59;102060.72;;;5.94;100.00
5883;BME280;2967;51.488;6.618;2023-01-26T23:20:01;102075.53;;;5.96;100.00
5883;BME280;2967;51.488;6.618;2023-01-26T23:25:04;102072.81;;;5.99;100.00
5883;BME280;2967;51.488;6.618;2023-01-26T23:30:26;102070.31;;;5.95;100.00
5883;BME280;2967;51.488;6.618;2023-01-26T23:35:29;102072.22;;;5.88;100.00
5883;BME280;2967;51.488;6.618;2023-01-26T23:40:32;102059.34;;;5.79;100.00
5883;BME280;2967;51.488;6.618;2023-01-26T23:45:36;102080.09;;;5.88;100.00
5883;BME280;2967;51.488;6.618;2023-01-26T23:50:40;102082.03;;;5.82;100.00
5883;BME280;2967;51.488;6.618;2023-01-26T23:55:42;102074.19;;;5.80;100.00
